Wargrave, United Kingdom
Current Conditions -  °F | °C
As of 3:50 PM on Sunday 23 Nov 2014 (Local Time) from EGUB Reporting Station
Broken Clouds Broken Clouds  
Wind Chill: 45°   Ceiling: 7000
Heat Index: 45°   Visibility: 6mi
Dew Point: 45°   Wind: 3mph
Humidity: 100%   Direction: 280°W
Pressure: 30.06"   Gusts: NA
Location:  51.5°N, 0.87°W
Report Text: EGUB 231550Z 28003KT 9999 FEW012 BKN070 07/07 Q1018 BLU NOSIG
Loading
Personal Weather Stations






























Interactive Weather Map New forecast layout! Learn more

10-Day Weather Forecast

Advertisements
Track Severe Weather on mobile